Time;durP1;ratioP1;P1;durP2;ratioP2;P2;SDS_P1;SDS_P2;PMS_P1;PMS_P2;Temp;Humidity;BMP_temperature;BMP_pressure;BME280_temperature;BME280_humidity;BME280_pressure;Samples;Min_cycle;Max_cycle;Signal;HPM_P1;HPM_P2
2023/05/04 00:01:20;;;;;;;4.10;3.57;;;;;;;11.48;nan;98586.19;4994132;28;20203;-75
2023/05/04 00:03:46;;;;;;;6.07;3.77;;;;;;;11.40;nan;98578.44;4994137;28;20208;-75
2023/05/04 00:06:13;;;;;;;3.93;3.40;;;;;;;11.38;nan;98577.84;4994446;28;20219;-75
2023/05/04 00:08:39;;;;;;;4.63;3.53;;;;;;;11.27;nan;98573.19;4993813;28;20220;-75
2023/05/04 00:11:06;;;;;;;6.47;4.00;;;;;;;11.24;nan;98573.59;4994107;28;20208;-75
2023/05/04 00:13:32;;;;;;;4.83;3.80;;;;;;;11.19;nan;98570.75;4993912;28;20203;-75
2023/05/04 00:15:58;;;;;;;6.27;3.50;;;;;;;11.19;nan;98568.09;4993614;28;20323;-75
2023/05/04 00:18:25;;;;;;;5.83;3.60;;;;;;;11.11;nan;98563.00;4993753;28;20217;-76
2023/05/04 00:20:51;;;;;;;4.47;3.70;;;;;;;11.09;nan;98567.72;4993484;28;20305;-76
2023/05/04 00:23:17;;;;;;;4.70;3.63;;;;;;;11.12;nan;98566.47;4993750;28;20207;-76
2023/05/04 00:25:44;;;;;;;4.63;4.07;;;;;;;11.07;nan;98564.44;4993686;28;20221;-76
2023/05/04 00:28:10;;;;;;;4.47;3.60;;;;;;;11.02;nan;98565.09;4993628;28;20216;-76
2023/05/04 00:30:36;;;;;;;5.33;4.20;;;;;;;10.99;nan;98567.31;4993589;28;20212;-76
2023/05/04 00:33:03;;;;;;;5.63;4.20;;;;;;;10.94;nan;98562.63;4993807;28;20213;-76
2023/05/04 00:35:30;;;;;;;5.53;3.67;;;;;;;10.84;nan;98559.59;4994259;28;20228;-76
2023/05/04 00:37:57;;;;;;;4.23;3.83;;;;;;;10.80;nan;98552.22;4997533;28;20576;-76
2023/05/04 00:40:24;;;;;;;4.53;3.80;;;;;;;10.72;nan;98547.97;4997524;28;20214;-76
2023/05/04 00:42:50;;;;;;;5.43;4.33;;;;;;;10.69;nan;98544.91;4997442;28;20290;-76
2023/05/04 00:45:16;;;;;;;5.23;4.10;;;;;;;10.75;nan;98542.22;4997289;28;20237;-76
2023/05/04 00:47:43;;;;;;;5.53;3.80;;;;;;;10.71;nan;98538.34;4997404;28;20202;-76
2023/05/04 00:50:10;;;;;;;4.17;3.77;;;;;;;10.74;nan;98542.44;4997298;28;20226;-76
2023/05/04 00:52:37;;;;;;;7.83;4.30;;;;;;;10.72;nan;98541.81;4997239;28;20222;-76
2023/05/04 00:55:03;;;;;;;7.17;4.20;;;;;;;10.69;nan;98536.94;4996857;28;20214;-76
2023/05/04 00:57:30;;;;;;;4.80;4.17;;;;;;;10.71;nan;98540.19;4997221;28;20212;-76
2023/05/04 00:59:56;;;;;;;5.17;4.27;;;;;;;10.56;nan;98539.59;4997155;28;20219;-76
2023/05/04 01:02:23;;;;;;;5.13;4.33;;;;;;;10.56;nan;98528.97;4997099;28;20211;-76
2023/05/04 01:04:49;;;;;;;4.73;4.23;;;;;;;10.53;nan;98537.34;4997050;28;20229;-77
2023/05/04 01:07:18;;;;;;;4.70;4.30;;;;;;;10.55;nan;98538.78;4997042;28;20207;-77
2023/05/04 01:10:01;;;;;;;4.93;4.43;;;;;;;10.50;nan;98538.56;4996595;28;20215;-77
2023/05/04 01:12:37;;;;;;;4.27;3.87;;;;;;;10.60;nan;98540.81;4997383;28;20205;-77
2023/05/04 01:15:05;;;;;;;5.43;4.33;;;;;;;10.33;nan;98544.53;4996687;28;20192;-77
2023/05/04 01:17:32;;;;;;;5.13;4.60;;;;;;;10.19;nan;98540.25;4997465;28;20223;-77
2023/05/04 01:19:58;;;;;;;8.50;4.13;;;;;;;10.23;nan;98541.47;4996659;28;20203;-73
2023/05/04 01:22:25;;;;;;;5.07;4.53;;;;;;;10.21;nan;98546.16;4996726;28;20219;-73
2023/05/04 01:24:51;;;;;;;6.17;4.10;;;;;;;10.25;nan;98548.22;4996334;28;20847;-73
2023/05/04 01:27:26;;;;;;;5.53;4.63;;;;;;;10.12;nan;98544.72;4996648;28;20200;-73
2023/05/04 01:30:14;;;;;;;5.03;4.23;;;;;;;10.03;nan;98541.44;4996605;28;20190;-73
2023/05/04 01:32:41;;;;;;;5.53;4.43;;;;;;;10.05;nan;98552.69;4997651;28;20527;-73
2023/05/04 01:35:10;;;;;;;5.60;4.63;;;;;;;10.09;nan;98535.34;4996438;28;20210;-73
2023/05/04 01:37:36;;;;;;;5.37;4.87;;;;;;;10.06;nan;98543.72;4996358;28;20235;-73
2023/05/04 01:40:04;;;;;;;5.67;4.77;;;;;;;10.08;nan;98538.19;4996353;28;20211;-73
2023/05/04 01:42:30;;;;;;;5.60;5.10;;;;;;;10.07;nan;98534.72;4996301;28;20298;-73
2023/05/04 01:44:57;;;;;;;7.20;4.80;;;;;;;10.06;nan;98532.28;4995926;28;20266;-73
2023/05/04 01:47:23;;;;;;;5.50;5.00;;;;;;;10.06;nan;98529.63;4995168;28;20211;-73
2023/05/04 01:49:49;;;;;;;5.30;4.80;;;;;;;10.02;nan;98531.00;4996237;28;20222;-73
2023/05/04 01:52:16;;;;;;;5.40;4.90;;;;;;;10.00;nan;98536.53;4995772;28;20678;-73
2023/05/04 01:54:42;;;;;;;6.10;5.50;;;;;;;9.96;nan;98539.81;4996175;28;20282;-73
2023/05/04 01:57:08;;;;;;;5.87;5.20;;;;;;;9.94;nan;98542.66;4995631;28;20705;-73
2023/05/04 01:59:35;;;;;;;6.73;5.30;;;;;;;9.85;nan;98537.72;4996009;28;20312;-73
2023/05/04 02:02:01;;;;;;;7.40;5.20;;;;;;;9.67;nan;98542.81;4996029;28;20253;-73
2023/05/04 02:04:28;;;;;;;5.93;5.17;;;;;;;9.65;nan;98537.69;4995924;28;20214;-73
2023/05/04 02:06:55;;;;;;;6.60;5.30;;;;;;;9.69;nan;98541.59;4995860;28;20230;-73
2023/05/04 02:09:21;;;;;;;5.87;5.30;;;;;;;9.60;nan;98534.81;4995430;28;20226;-73
2023/05/04 02:11:48;;;;;;;6.27;5.57;;;;;;;9.69;nan;98538.13;4995376;28;20207;-73
2023/05/04 02:14:14;;;;;;;7.93;5.07;;;;;;;9.46;nan;98533.16;4995436;28;20212;-73
2023/05/04 02:16:40;;;;;;;7.00;4.77;;;;;;;9.35;nan;98528.44;4995593;28;20254;-73
2023/05/04 02:19:07;;;;;;;5.93;4.90;;;;;;;9.24;nan;98529.00;4995365;28;20666;-73
2023/05/04 02:21:33;;;;;;;6.70;5.00;;;;;;;9.35;nan;98531.09;4995188;28;20294;-73
2023/05/04 02:24:00;;;;;;;6.80;5.13;;;;;;;9.24;nan;98528.22;4995286;28;20211;-73
2023/05/04 02:26:26;;;;;;;8.03;5.23;;;;;;;9.23;nan;98524.72;4995465;28;20223;-73
2023/05/04 02:28:52;;;;;;;6.20;5.40;;;;;;;9.16;nan;98529.19;4995199;28;20207;-73
2023/05/04 02:31:19;;;;;;;5.43;4.87;;;;;;;9.23;nan;98526.56;4995081;28;20634;-73
2023/05/04 02:33:45;;;;;;;6.37;5.10;;;;;;;9.27;nan;98520.66;4994957;28;20211;-73
2023/05/04 02:36:11;;;;;;;6.03;5.40;;;;;;;9.30;nan;98522.94;4994884;28;20235;-73
2023/05/04 02:38:38;;;;;;;6.27;5.60;;;;;;;9.29;nan;98525.78;4994913;28;20218;-73
2023/05/04 02:41:04;;;;;;;7.40;5.57;;;;;;;9.33;nan;98527.00;4994831;28;20576;-73
2023/05/04 02:43:30;;;;;;;7.20;5.40;;;;;;;9.30;nan;98530.06;4994905;28;20675;-73
2023/05/04 02:45:57;;;;;;;6.23;5.70;;;;;;;9.30;nan;98528.22;4994891;28;20223;-73
2023/05/04 02:48:24;;;;;;;6.90;5.47;;;;;;;9.23;nan;98524.72;4994691;28;20674;-73
2023/05/04 02:50:51;;;;;;;6.20;5.60;;;;;;;9.08;nan;98518.75;4994509;28;20222;-73
2023/05/04 02:53:18;;;;;;;8.13;5.70;;;;;;;9.13;nan;98520.81;4995024;28;20214;-73
2023/05/04 02:55:44;;;;;;;6.03;5.23;;;;;;;9.13;nan;98515.50;4994477;28;20710;-73
2023/05/04 02:58:10;;;;;;;6.30;5.70;;;;;;;9.04;nan;98512.22;4994838;28;20222;-73
2023/05/04 03:00:37;;;;;;;7.60;5.43;;;;;;;9.05;nan;98521.00;4994614;28;20211;-73
2023/05/04 03:03:03;;;;;;;6.37;5.70;;;;;;;9.04;nan;98522.81;4994450;28;20670;-73
2023/05/04 03:05:30;;;;;;;7.83;5.50;;;;;;;9.05;nan;98521.78;4994603;28;20694;-73
2023/05/04 03:07:56;;;;;;;6.97;5.87;;;;;;;9.09;nan;98516.94;4994565;28;20218;-73
2023/05/04 03:10:22;;;;;;;7.70;5.80;;;;;;;9.03;nan;98521.19;4994436;28;20191;-73
2023/05/04 03:12:49;;;;;;;6.53;5.20;;;;;;;8.99;nan;98525.25;4994229;28;20211;-73
2023/05/04 03:15:15;;;;;;;6.93;5.13;;;;;;;9.00;nan;98526.06;4994481;28;20237;-73
2023/05/04 03:17:42;;;;;;;5.90;5.10;;;;;;;9.06;nan;98530.59;4994531;28;20238;-73
2023/05/04 03:20:09;;;;;;;6.03;5.00;;;;;;;9.07;nan;98532.22;4994538;28;20624;-73
2023/05/04 03:22:35;;;;;;;5.47;4.97;;;;;;;8.93;nan;98526.03;4994500;28;20214;-73
2023/05/04 03:25:02;;;;;;;6.00;5.40;;;;;;;8.96;nan;98527.47;4994371;28;20552;-73
2023/05/04 03:27:29;;;;;;;5.47;4.97;;;;;;;8.89;nan;98529.28;4994447;28;20565;-73
2023/05/04 03:29:55;;;;;;;6.03;5.20;;;;;;;8.90;nan;98526.44;4994098;28;20662;-73
2023/05/04 03:32:21;;;;;;;6.87;5.10;;;;;;;8.95;nan;98528.47;4994364;28;20582;-75
2023/05/04 03:34:48;;;;;;;5.93;5.17;;;;;;;8.88;nan;98523.13;4994180;28;20211;-75
2023/05/04 03:37:15;;;;;;;6.57;5.80;;;;;;;8.83;nan;98524.75;4993793;28;20694;-75
2023/05/04 03:39:41;;;;;;;7.60;5.80;;;;;;;8.90;nan;98523.78;4994191;28;20214;-75
2023/05/04 03:42:07;;;;;;;6.80;6.10;;;;;;;8.88;nan;98519.69;4993865;28;20211;-75
2023/05/04 03:44:34;;;;;;;6.30;5.70;;;;;;;8.80;nan;98523.31;4994068;28;20580;-75
2023/05/04 03:47:00;;;;;;;9.17;5.97;;;;;;;8.74;nan;98528.59;4993655;28;20245;-75
2023/05/04 03:49:27;;;;;;;8.20;5.93;;;;;;;8.66;nan;98518.13;4993794;28;20231;-75
2023/05/04 03:51:53;;;;;;;6.90;5.67;;;;;;;8.56;nan;98518.47;4993894;28;20221;-75
2023/05/04 03:54:20;;;;;;;7.17;6.47;;;;;;;8.56;nan;98507.88;4993702;28;20213;-75
2023/05/04 03:56:46;;;;;;;6.43;5.77;;;;;;;8.56;nan;98510.53;4993818;28;20236;-75
2023/05/04 03:59:12;;;;;;;8.40;6.27;;;;;;;8.51;nan;98510.28;4993970;28;20207;-75
2023/05/04 04:01:39;;;;;;;8.87;5.80;;;;;;;8.45;nan;98513.72;4993737;28;20218;-75
2023/05/04 04:04:05;;;;;;;7.83;6.30;;;;;;;8.58;nan;98511.16;4993805;28;20203;-75
2023/05/04 04:06:32;;;;;;;6.97;6.27;;;;;;;8.63;nan;98514.06;4993640;28;20223;-75
2023/05/04 04:08:58;;;;;;;7.53;6.43;;;;;;;8.71;nan;98513.06;4993477;28;20215;-75
2023/05/04 04:11:25;;;;;;;7.30;6.70;;;;;;;8.75;nan;98511.66;4995892;28;20215;-75
2023/05/04 04:13:51;;;;;;;8.17;6.60;;;;;;;8.72;nan;98506.75;4997863;28;20297;-75
2023/05/04 04:16:19;;;;;;;7.57;6.90;;;;;;;8.77;nan;98509.63;4997651;28;20235;-75
2023/05/04 04:18:45;;;;;;;7.73;6.93;;;;;;;8.78;nan;98508.63;4997364;28;20569;-75
2023/05/04 04:21:12;;;;;;;7.87;7.07;;;;;;;8.82;nan;98507.22;4997666;28;20211;-75
2023/05/04 04:23:39;;;;;;;10.57;7.53;;;;;;;8.75;nan;98506.38;4997594;28;20207;-75
2023/05/04 04:26:05;;;;;;;8.73;7.33;;;;;;;8.84;nan;98507.84;4997171;28;20238;-75
2023/05/04 04:28:35;;;;;;;8.73;7.70;;;;;;;8.81;nan;98506.41;4997442;28;20215;-75
2023/05/04 04:31:02;;;;;;;8.53;7.17;;;;;;;8.80;nan;98501.28;4997102;28;20226;-75
2023/05/04 04:33:28;;;;;;;8.57;7.50;;;;;;;8.68;nan;98502.84;4996378;28;20211;-75
2023/05/04 04:35:55;;;;;;;8.23;7.40;;;;;;;8.71;nan;98503.28;4997757;28;20235;-75
2023/05/04 04:38:21;;;;;;;8.13;7.03;;;;;;;8.74;nan;98504.72;4997035;28;20366;-75
2023/05/04 04:40:48;;;;;;;7.77;7.00;;;;;;;8.79;nan;98503.09;4997731;28;20207;-75
2023/05/04 04:43:14;;;;;;;8.77;7.43;;;;;;;8.82;nan;98499.28;4997370;28;20210;-75
2023/05/04 04:45:41;;;;;;;9.43;7.57;;;;;;;9.01;nan;98499.34;4996786;28;20226;-75
2023/05/04 04:48:07;;;;;;;9.20;7.30;;;;;;;8.99;nan;98503.19;4997021;28;20200;-75
2023/05/04 04:50:33;;;;;;;10.10;8.33;;;;;;;9.09;nan;98503.66;4997079;28;20214;-75
2023/05/04 04:53:00;;;;;;;8.27;7.17;;;;;;;9.21;nan;98502.06;4996959;28;20207;-75
2023/05/04 04:55:26;;;;;;;8.53;7.73;;;;;;;9.16;nan;98493.88;4996927;28;20226;-75
2023/05/04 04:57:54;;;;;;;10.47;7.83;;;;;;;9.21;nan;98494.94;4996139;28;20245;-75
2023/05/04 05:00:22;;;;;;;8.67;7.80;;;;;;;9.31;nan;98494.53;4997095;28;20208;-76
2023/05/04 05:02:49;;;;;;;8.37;7.53;;;;;;;9.33;nan;98495.97;4996870;28;20293;-75
2023/05/04 05:05:15;;;;;;;9.23;7.80;;;;;;;9.48;nan;98501.94;4996330;28;20234;-75
2023/05/04 05:07:42;;;;;;;9.97;7.43;;;;;;;9.56;nan;98500.94;4996763;28;20210;-75
2023/05/04 05:10:08;;;;;;;9.13;8.23;;;;;;;9.57;nan;98495.44;4996660;28;20202;-75
2023/05/04 05:12:35;;;;;;;8.67;7.77;;;;;;;9.64;nan;98492.78;4996622;28;20209;-75
2023/05/04 05:15:03;;;;;;;9.07;7.60;;;;;;;9.69;nan;98490.34;4996184;28;20223;-75
2023/05/04 05:17:29;;;;;;;8.87;7.83;;;;;;;9.82;nan;98490.34;4996379;28;20234;-75
2023/05/04 05:19:56;;;;;;;8.53;7.60;;;;;;;9.94;nan;98488.72;4996900;28;20624;-75
2023/05/04 05:22:22;;;;;;;10.00;8.10;;;;;;;10.10;nan;98488.34;4994718;28;20223;-75
2023/05/04 05:24:49;;;;;;;8.73;7.83;;;;;;;10.19;nan;98481.78;4995854;28;20570;-75
2023/05/04 05:27:15;;;;;;;9.30;8.37;;;;;;;10.35;nan;98476.88;4996229;28;20210;-75
2023/05/04 05:29:43;;;;;;;9.73;7.93;;;;;;;10.40;nan;98484.19;4996229;28;20225;-75
2023/05/04 05:32:09;;;;;;;9.17;8.07;;;;;;;10.46;nan;98494.03;4996037;28;20218;-75
2023/05/04 05:34:37;;;;;;;10.73;8.50;;;;;;;10.56;nan;98489.91;4996192;28;20244;-75
2023/05/04 05:37:04;;;;;;;9.87;7.93;;;;;;;10.63;nan;98498.69;4995463;28;20223;-76
2023/05/04 05:39:31;;;;;;;9.60;8.00;;;;;;;10.73;nan;98492.94;4995667;28;20266;-75
2023/05/04 05:41:57;;;;;;;10.03;7.90;;;;;;;10.79;nan;98492.09;4995870;28;20211;-75
2023/05/04 05:44:24;;;;;;;9.83;7.93;;;;;;;10.90;nan;98494.09;4995901;28;20211;-75
2023/05/04 05:46:50;;;;;;;9.57;8.53;;;;;;;11.09;nan;98495.88;4995492;28;20227;-75
2023/05/04 05:49:17;;;;;;;9.47;8.47;;;;;;;11.13;nan;98491.78;4995579;28;20685;-75
2023/05/04 05:51:43;;;;;;;12.87;9.43;;;;;;;11.27;nan;98492.50;4995975;28;20211;-76
2023/05/04 05:54:09;;;;;;;10.00;8.97;;;;;;;11.37;nan;98495.53;4995516;28;20222;-75
2023/05/04 05:56:36;;;;;;;12.07;8.90;;;;;;;11.45;nan;98492.63;4994946;28;20227;-75
2023/05/04 05:59:03;;;;;;;12.43;9.47;;;;;;;11.55;nan;98500.94;4996172;28;20211;-75
2023/05/04 06:01:29;;;;;;;12.77;8.90;;;;;;;11.25;nan;98500.69;4995243;28;20245;-75
2023/05/04 06:03:55;;;;;;;10.70;9.67;;;;;;;11.56;nan;98508.72;4995462;28;20576;-75
2023/05/04 06:06:22;;;;;;;11.93;10.00;;;;;;;11.64;nan;98497.03;4995549;28;20261;-75
2023/05/04 06:08:48;;;;;;;11.07;9.90;;;;;;;11.74;nan;98486.72;4995104;28;20212;-75
2023/05/04 06:11:14;;;;;;;12.20;10.93;;;;;;;11.85;nan;98484.16;4995455;28;20223;-76
2023/05/04 06:13:41;;;;;;;13.27;10.30;;;;;;;12.08;nan;98488.94;4995015;28;20207;-76
2023/05/04 06:16:07;;;;;;;12.60;10.03;;;;;;;12.03;nan;98492.22;4994973;28;20227;-75
2023/05/04 06:18:33;;;;;;;11.03;9.90;;;;;;;12.01;nan;98491.66;4995290;28;20227;-75
2023/05/04 06:21:00;;;;;;;11.40;10.07;;;;;;;12.09;nan;98494.03;4994862;28;20218;-75
2023/05/04 06:23:28;;;;;;;11.33;10.13;;;;;;;12.12;nan;98490.13;4994964;28;20209;-75
2023/05/04 06:25:54;;;;;;;14.80;10.37;;;;;;;12.18;nan;98482.06;4995130;28;20226;-75
2023/05/04 06:28:21;;;;;;;11.77;9.73;;;;;;;12.42;nan;98481.22;4995929;28;20270;-75
2023/05/04 06:30:47;;;;;;;14.37;9.83;;;;;;;12.62;nan;98489.03;4994978;28;20272;-75
2023/05/04 06:33:14;;;;;;;10.93;9.20;;;;;;;12.53;nan;98488.50;4995019;28;20210;-75
2023/05/04 06:35:41;;;;;;;9.93;8.67;;;;;;;12.57;nan;98489.69;4995191;28;20237;-75
2023/05/04 06:38:07;;;;;;;11.90;9.80;;;;;;;12.49;nan;98490.00;4995013;28;20230;-75
2023/05/04 06:40:34;;;;;;;10.10;9.10;;;;;;;12.66;nan;98480.34;4995071;28;20218;-75
2023/05/04 06:43:00;;;;;;;11.03;8.77;;;;;;;12.54;nan;98487.47;4995267;28;20214;-72
2023/05/04 06:45:27;;;;;;;9.70;8.73;;;;;;;12.84;nan;98483.03;4994764;28;20227;-72
2023/05/04 06:47:53;;;;;;;12.03;9.57;;;;;;;12.89;nan;98485.03;4994556;28;20203;-72
2023/05/04 06:50:22;;;;;;;10.07;9.07;;;;;;;12.96;nan;98491.94;4995005;28;20210;-72
2023/05/04 06:52:48;;;;;;;13.13;8.77;;;;;;;13.05;nan;98490.63;4994815;28;20211;-72
2023/05/04 06:55:15;;;;;;;12.37;9.33;;;;;;;13.17;nan;98494.19;4994444;28;20232;-72
2023/05/04 06:57:41;;;;;;;10.90;9.07;;;;;;;13.22;nan;98480.13;4994486;28;20219;-73
2023/05/04 07:00:08;;;;;;;10.63;9.60;;;;;;;13.33;nan;98492.72;4994616;28;20237;-72
2023/05/04 07:02:35;;;;;;;12.33;8.67;;;;;;;13.13;nan;98487.66;4994696;28;20207;-72
2023/05/04 07:05:02;;;;;;;9.97;8.97;;;;;;;13.22;nan;98485.47;4994227;28;20209;-72
2023/05/04 07:07:28;;;;;;;10.30;9.30;;;;;;;13.46;nan;98485.34;4994513;28;20667;-72
2023/05/04 07:09:54;;;;;;;10.33;8.77;;;;;;;13.39;nan;98484.63;4994021;28;20222;-72
2023/05/04 07:12:21;;;;;;;10.70;9.47;;;;;;;13.45;nan;98478.38;4994200;28;20255;-72
2023/05/04 07:14:47;;;;;;;9.77;8.70;;;;;;;13.67;nan;98482.19;4994015;28;20207;-71
2023/05/04 07:17:13;;;;;;;11.37;9.53;;;;;;;13.70;nan;98476.38;4993990;28;20235;-72
2023/05/04 07:19:40;;;;;;;10.27;9.17;;;;;;;14.07;nan;98479.72;4994001;28;20211;-72
2023/05/04 07:22:06;;;;;;;10.13;8.93;;;;;;;13.89;nan;98477.91;4994076;28;20211;-72
2023/05/04 07:24:32;;;;;;;9.97;8.80;;;;;;;13.81;nan;98486.28;4994143;28;20215;-72
2023/05/04 07:26:59;;;;;;;11.07;9.13;;;;;;;13.91;nan;98475.84;4993878;28;20710;-72
2023/05/04 07:29:26;;;;;;;10.00;8.73;;;;;;;14.26;nan;98475.91;4993967;28;20211;-72
2023/05/04 07:31:52;;;;;;;8.73;7.73;;;;;;;14.38;nan;98474.88;4994155;28;20278;-72
2023/05/04 07:34:19;;;;;;;9.37;8.47;;;;;;;14.39;nan;98471.13;4994136;28;20207;-72
2023/05/04 07:36:45;;;;;;;8.97;8.07;;;;;;;14.35;nan;98477.19;4993977;28;20313;-72
2023/05/04 07:39:12;;;;;;;9.03;8.13;;;;;;;14.50;nan;98469.50;4994068;28;20227;-72
2023/05/04 07:41:38;;;;;;;9.20;8.20;;;;;;;14.82;nan;98479.59;4994206;28;20211;-72
2023/05/04 07:44:07;;;;;;;9.50;8.10;;;;;;;14.82;nan;98484.13;4993860;28;20214;-72
2023/05/04 07:46:33;;;;;;;9.10;8.20;;;;;;;14.78;nan;98483.78;4993138;28;20299;-72
2023/05/04 07:49:00;;;;;;;9.10;7.97;;;;;;;14.75;nan;98478.91;4993733;28;20219;-72
2023/05/04 07:51:26;;;;;;;9.00;8.20;;;;;;;14.90;nan;98481.09;4993593;28;20656;-72
2023/05/04 07:53:52;;;;;;;9.43;8.43;;;;;;;15.06;nan;98475.81;4993604;28;20214;-72
2023/05/04 07:56:19;;;;;;;9.83;8.60;;;;;;;15.02;nan;98477.34;4993398;28;20227;-72
2023/05/04 07:58:46;;;;;;;8.60;7.80;;;;;;;15.27;nan;98475.19;4993214;28;20223;-73
2023/05/04 08:01:12;;;;;;;9.73;7.80;;;;;;;15.54;nan;98478.13;4993770;28;20215;-72
2023/05/04 08:03:39;;;;;;;8.40;7.67;;;;;;;15.63;nan;98482.03;4993590;28;20229;-72
2023/05/04 08:06:05;;;;;;;8.20;7.43;;;;;;;15.75;nan;98475.56;4990723;28;20219;-72
2023/05/04 08:08:32;;;;;;;8.40;7.60;;;;;;;15.62;nan;98475.06;4993724;28;20290;-72
2023/05/04 08:10:58;;;;;;;9.13;7.23;;;;;;;15.57;nan;98478.47;4994002;28;20211;-72
2023/05/04 08:13:24;;;;;;;9.17;7.80;;;;;;;15.60;nan;98464.56;4993858;28;20214;-72
2023/05/04 08:15:51;;;;;;;8.10;7.40;;;;;;;15.97;nan;98463.06;4993392;28;20710;-72
2023/05/04 08:18:18;;;;;;;8.43;7.63;;;;;;;16.29;nan;98461.44;4993567;28;20594;-72
2023/05/04 08:20:44;;;;;;;8.73;7.90;;;;;;;16.06;nan;98455.47;4993818;28;20217;-71
2023/05/04 08:23:10;;;;;;;8.60;7.57;;;;;;;16.07;nan;98452.53;4993880;28;20287;-72
2023/05/04 08:25:37;;;;;;;8.77;7.73;;;;;;;16.22;nan;98449.25;4993691;28;20230;-72
2023/05/04 08:28:03;;;;;;;8.40;7.63;;;;;;;16.20;nan;98440.66;4993834;28;20207;-72
2023/05/04 08:30:30;;;;;;;8.03;7.27;;;;;;;16.28;nan;98443.72;4993836;28;20222;-74
2023/05/04 08:32:58;;;;;;;8.03;7.23;;;;;;;16.25;nan;98444.25;4993846;28;20207;-72
2023/05/04 08:35:26;;;;;;;7.70;6.83;;;;;;;16.33;nan;98446.47;4993742;28;20262;-72
2023/05/04 08:37:53;;;;;;;8.03;7.10;;;;;;;16.73;nan;98444.41;4993813;28;20238;-72
2023/05/04 08:40:19;;;;;;;8.97;6.83;;;;;;;16.76;nan;98443.91;4993856;28;20214;-72
2023/05/04 08:42:49;;;;;;;8.10;7.40;;;;;;;16.82;nan;98442.13;4993443;28;20254;-72
2023/05/04 08:45:16;;;;;;;7.13;6.37;;;;;;;16.84;nan;98438.13;4993334;28;20733;-75
2023/05/04 08:47:43;;;;;;;6.77;6.17;;;;;;;17.01;nan;98443.44;4993483;28;20207;-75
2023/05/04 08:50:11;;;;;;;8.57;5.90;;;;;;;17.02;nan;98437.81;4993611;28;20203;-75
2023/05/04 08:52:42;;;;;;;8.10;5.77;;;;;;;17.10;nan;98431.19;4994014;28;20207;-75
2023/05/04 08:55:11;;;;;;;6.50;5.37;;;;;;;17.38;nan;98431.75;4993619;28;20202;-75
2023/05/04 08:57:38;;;;;;;6.87;5.90;;;;;;;17.44;nan;98429.97;4995445;28;20223;-75
2023/05/04 09:00:07;;;;;;;6.43;5.30;;;;;;;17.52;nan;98422.28;4997223;28;20214;-75
2023/05/04 09:02:35;;;;;;;5.60;5.10;;;;;;;17.39;nan;98424.50;4997446;28;20213;-75
2023/05/04 09:05:01;;;;;;;4.40;4.00;;;;;;;17.62;nan;98424.22;4996849;28;20210;-75
2023/05/04 09:07:27;;;;;;;5.63;3.90;;;;;;;17.85;nan;98419.34;4997204;28;20214;-75
2023/05/04 09:09:55;;;;;;;5.13;3.40;;;;;;;18.14;nan;98407.19;4996626;28;20285;-75
2023/05/04 09:12:22;;;;;;;5.00;3.37;;;;;;;18.36;nan;98410.59;4996986;28;20207;-72
2023/05/04 09:14:48;;;;;;;3.60;3.30;;;;;;;18.29;nan;98410.00;4996937;28;20234;-72
2023/05/04 09:17:24;;;;;;;4.03;3.67;;;;;;;18.46;nan;98404.47;4996709;28;20204;-73
2023/05/04 09:19:59;;;;;;;4.80;3.83;;;;;;;18.25;nan;98402.69;4996702;28;20188;-73
2023/05/04 09:22:26;;;;;;;4.60;3.50;;;;;;;18.30;nan;98403.53;4996469;28;20203;-73
2023/05/04 09:24:53;;;;;;;5.13;3.43;;;;;;;18.82;nan;98407.06;4996148;28;20290;-73
2023/05/04 09:27:21;;;;;;;4.03;3.60;;;;;;;18.80;nan;98403.00;4996241;28;20207;-72
2023/05/04 09:29:54;;;;;;;3.50;3.20;;;;;;;19.22;nan;98403.69;4995987;28;20686;-72
2023/05/04 09:32:20;;;;;;;4.17;3.60;;;;;;;19.21;nan;98392.13;4995908;28;20218;-73
2023/05/04 09:34:50;;;;;;;3.20;2.90;;;;;;;19.30;nan;98401.34;4996357;28;20693;-72
2023/05/04 09:37:19;;;;;;;3.70;3.40;;;;;;;19.45;nan;98406.75;4996908;28;20658;-72
2023/05/04 09:39:58;;;;;;;4.43;3.33;;;;;;;19.17;nan;98399.13;4996939;28;20812;-73
2023/05/04 09:42:27;;;;;;;4.93;3.40;;;;;;;19.20;nan;98390.50;4997001;28;20224;-73
2023/05/04 09:45:05;;;;;;;3.80;3.10;;;;;;;19.58;nan;98378.44;4997296;28;20211;-73
2023/05/04 09:47:41;;;;;;;3.63;3.33;;;;;;;19.51;nan;98381.41;4996967;28;20206;-73
2023/05/04 09:50:18;;;;;;;5.00;3.43;;;;;;;19.73;nan;98375.78;4996611;28;20199;-73
2023/05/04 09:52:46;;;;;;;3.97;3.63;;;;;;;19.61;nan;98375.22;4997377;28;20203;-73
2023/05/04 09:55:17;;;;;;;4.20;3.83;;;;;;;19.68;nan;98376.56;4997233;28;20270;-73
2023/05/04 09:57:45;;;;;;;4.93;3.30;;;;;;;19.83;nan;98374.97;4997202;28;20198;-73
2023/05/04 10:00:14;;;;;;;5.87;3.10;;;;;;;19.81;nan;98371.72;4996452;28;20207;-73
2023/05/04 10:02:41;;;;;;;5.90;3.13;;;;;;;20.07;nan;98365.25;4996521;28;20204;-73
2023/05/04 10:05:08;;;;;;;3.60;3.30;;;;;;;20.09;nan;98369.31;4996363;28;20215;-73
2023/05/04 10:07:36;;;;;;;5.67;3.63;;;;;;;20.17;nan;98370.66;4995391;28;20278;-75
2023/05/04 10:10:04;;;;;;;4.80;2.97;;;;;;;20.48;nan;98370.31;4995614;28;20214;-74
2023/05/04 10:12:30;;;;;;;3.30;2.93;;;;;;;20.30;nan;98370.09;4996466;28;20690;-72
2023/05/04 10:14:57;;;;;;;4.13;3.20;;;;;;;20.21;nan;98374.44;4996660;28;20204;-73
2023/05/04 10:17:51;;;;;;;30.53;27.30;;;;;;;19.98;nan;98369.56;4996971;28;20203;-72
2023/05/04 10:20:38;;;;;;;4.50;4.10;;;;;;;20.14;nan;98357.69;4996370;28;20333;-73
2023/05/04 10:23:19;;;;;;;10.93;8.63;;;;;;;20.11;nan;98363.66;4996709;28;20563;-73
2023/05/04 10:26:12;;;;;;;5.50;4.93;;;;;;;20.28;nan;98359.56;4996495;28;20242;-73
2023/05/04 10:29:03;;;;;;;7.70;6.20;;;;;;;20.37;nan;98357.09;4996345;28;20192;-73
2023/05/04 10:31:55;;;;;;;3.63;3.33;;;;;;;20.78;nan;98358.59;4996859;28;20254;-73
2023/05/04 10:34:37;;;;;;;28.53;25.27;;;;;;;20.67;nan;98351.63;4996804;28;20195;-73
2023/05/04 10:37:03;;;;;;;9.57;8.60;;;;;;;20.60;nan;98348.38;4995391;28;20233;-73
2023/05/04 10:39:37;;;;;;;4.20;3.73;;;;;;;20.94;nan;98344.75;4996495;28;20230;-73
2023/05/04 10:42:08;;;;;;;6.40;5.77;;;;;;;21.04;nan;98342.03;4996044;28;20605;-73
2023/05/04 10:44:38;;;;;;;3.67;3.10;;;;;;;21.11;nan;98347.13;4994081;28;20209;-72
2023/05/04 10:47:07;;;;;;;3.60;3.30;;;;;;;21.01;nan;98333.63;4995920;28;20265;-72
2023/05/04 10:49:35;;;;;;;8.50;7.67;;;;;;;20.98;nan;98331.50;4993032;28;20210;-72
2023/05/04 10:52:14;;;;;;;4.45;3.60;;;;;;;21.43;nan;98323.13;4996446;28;20209;-72
2023/05/04 10:54:42;;;;;;;3.47;2.80;;;;;;;21.33;nan;98318.56;4994418;28;20278;-72
2023/05/04 10:57:15;;;;;;;3.25;2.88;;;;;;;21.36;nan;98315.31;4995547;28;20219;-72
2023/05/04 10:59:46;;;;;;;6.25;3.33;;;;;;;20.85;nan;98313.94;4995404;28;20231;-72
2023/05/04 11:02:26;;;;;;;6.97;6.03;;;;;;;20.90;nan;98314.00;4995579;28;20237;-72
2023/05/04 11:05:01;;;;;;;3.70;3.40;;;;;;;21.36;nan;98314.50;4995273;28;20226;-73
2023/05/04 11:07:35;;;;;;;3.95;2.88;;;;;;;21.16;nan;98304.63;4995352;28;20662;-73
2023/05/04 11:10:02;;;;;;;4.88;4.28;;;;;;;21.05;nan;98307.66;4995472;28;20187;-73
2023/05/04 11:12:29;;;;;;;3.15;2.85;;;;;;;21.39;nan;98306.63;4995019;28;20203;-72
2023/05/04 11:15:11;;;;;;;5.38;4.03;;;;;;;21.02;nan;98300.13;4994985;28;20298;-73
2023/05/04 11:17:47;;;;;;;7.18;6.45;;;;;;;21.26;nan;98301.06;4995148;28;20195;-73
2023/05/04 11:20:25;;;;;;;10.88;9.77;;;;;;;21.37;nan;98295.28;4995012;28;20222;-72
2023/05/04 11:22:54;;;;;;;3.92;3.13;;;;;;;21.56;nan;98298.13;4995374;28;20195;-73
2023/05/04 11:25:27;;;;;;;6.13;5.30;;;;;;;21.43;nan;98293.34;4995010;28;20233;-72
2023/05/04 11:27:54;;;;;;;4.25;2.95;;;;;;;21.53;nan;98290.56;4995421;28;20212;-73
2023/05/04 11:30:20;;;;;;;5.40;4.93;;;;;;;21.46;nan;98284.66;4995160;28;20647;-72
2023/05/04 11:32:48;;;;;;;3.80;3.50;;;;;;;21.31;nan;98279.38;4995022;28;20686;-73
2023/05/04 11:35:15;;;;;;;7.18;5.93;;;;;;;21.47;nan;98272.78;4995432;28;20234;-72
2023/05/04 11:37:42;;;;;;;5.75;3.10;;;;;;;21.53;nan;98280.53;4995075;28;20286;-72
2023/05/04 11:40:14;;;;;;;4.55;4.15;;;;;;;21.31;nan;98282.06;4995014;28;20273;-72
2023/05/04 11:42:41;;;;;;;4.68;4.30;;;;;;;21.41;nan;98276.59;4995022;28;20289;-72
2023/05/04 11:45:17;;;;;;;9.00;6.93;;;;;;;21.35;nan;98275.81;4995013;28;20233;-72
2023/05/04 11:47:45;;;;;;;4.07;3.78;;;;;;;21.41;nan;98266.59;4995049;28;20191;-73
2023/05/04 11:50:13;;;;;;;3.28;2.90;;;;;;;21.62;nan;98262.59;4995550;28;20546;-73
2023/05/04 11:52:40;;;;;;;7.00;4.63;;;;;;;21.65;nan;98261.22;4994542;28;20207;-72
2023/05/04 11:55:11;;;;;;;4.18;3.88;;;;;;;21.38;nan;98264.44;4994706;28;20214;-72